Terminal Aerodrome Forecast
Issued by NWS

Home | Current Version | Previous Version | Text Only | Print | Product List | Glossary On
Versions: 1 2 3 4 5 6 7 8 9 10 11 12 13 14 15 16 17 18 19 20 21 22 23 24
000
FTUS41 KBTV 291700
TAFSLK
TAF
KSLK 291720Z 2918/3018 22006KT P6SM SCT025 BKN035
     FM300200 VRB03KT P6SM SCT040
     FM300600 00000KT 1/2SM FG OVC001
     FM301200 22004KT P6SM SCT045=

USA.gov is the U.S. government's official web portal to all federal, state and local government web resources and services.